sensor_id;sensor_type;location;lat;lon;timestamp;pressure;altitude;pressure_sealevel;temperature;humidity
13476;BME280;6810;63.824;20.288;2023-07-22T00:00:16;100283.97;;;16.46;76.97
13476;BME280;6810;63.824;20.288;2023-07-22T00:03:03;100285.84;;;16.46;77.34
13476;BME280;6810;63.824;20.288;2023-07-22T00:06:10;100286.91;;;16.43;76.53
13476;BME280;6810;63.824;20.288;2023-07-22T00:08:57;100279.81;;;16.42;77.28
13476;BME280;6810;63.824;20.288;2023-07-22T00:11:44;100280.81;;;16.41;77.07
13476;BME280;6810;63.824;20.288;2023-07-22T00:14:32;100278.28;;;16.40;77.57
13476;BME280;6810;63.824;20.288;2023-07-22T00:17:19;100280.09;;;16.39;76.64
13476;BME280;6810;63.824;20.288;2023-07-22T00:20:06;100275.97;;;16.35;77.04
13476;BME280;6810;63.824;20.288;2023-07-22T00:22:54;100273.28;;;16.35;77.06
13476;BME280;6810;63.824;20.288;2023-07-22T00:25:41;100275.28;;;16.33;77.25
13476;BME280;6810;63.824;20.288;2023-07-22T00:28:28;100260.91;;;16.23;76.71
13476;BME280;6810;63.824;20.288;2023-07-22T00:31:15;100277.38;;;16.30;76.74
13476;BME280;6810;63.824;20.288;2023-07-22T00:34:02;100276.78;;;16.26;77.02
13476;BME280;6810;63.824;20.288;2023-07-22T00:36:49;100282.31;;;16.25;76.76
13476;BME280;6810;63.824;20.288;2023-07-22T00:39:36;100277.06;;;16.23;76.74
13476;BME280;6810;63.824;20.288;2023-07-22T00:42:24;100278.19;;;16.21;77.23
13476;BME280;6810;63.824;20.288;2023-07-22T00:45:11;100277.47;;;16.19;77.04
13476;BME280;6810;63.824;20.288;2023-07-22T00:47:58;100270.81;;;16.13;77.13
13476;BME280;6810;63.824;20.288;2023-07-22T00:50:45;100277.03;;;16.14;77.83
13476;BME280;6810;63.824;20.288;2023-07-22T00:53:33;100279.88;;;16.12;77.11
13476;BME280;6810;63.824;20.288;2023-07-22T00:56:20;100282.69;;;16.11;77.33
13476;BME280;6810;63.824;20.288;2023-07-22T00:59:07;100277.44;;;16.09;78.06
13476;BME280;6810;63.824;20.288;2023-07-22T01:01:54;100283.78;;;16.08;77.49
13476;BME280;6810;63.824;20.288;2023-07-22T01:04:41;100277.59;;;16.08;77.98
13476;BME280;6810;63.824;20.288;2023-07-22T01:07:31;100273.16;;;16.07;77.82
13476;BME280;6810;63.824;20.288;2023-07-22T01:10:18;100274.16;;;16.06;77.68
13476;BME280;6810;63.824;20.288;2023-07-22T01:13:05;100273.31;;;16.05;77.89
13476;BME280;6810;63.824;20.288;2023-07-22T01:15:53;100273.44;;;16.04;77.80
13476;BME280;6810;63.824;20.288;2023-07-22T01:18:40;100260.53;;;15.98;77.95
13476;BME280;6810;63.824;20.288;2023-07-22T01:21:29;100265.66;;;16.01;78.21
13476;BME280;6810;63.824;20.288;2023-07-22T01:24:16;100266.78;;;15.98;77.84
13476;BME280;6810;63.824;20.288;2023-07-22T01:27:05;100261.41;;;15.98;78.10
13476;BME280;6810;63.824;20.288;2023-07-22T01:29:53;100255.56;;;15.93;77.99
13476;BME280;6810;63.824;20.288;2023-07-22T01:32:40;100265.47;;;15.93;78.10
13476;BME280;6810;63.824;20.288;2023-07-22T01:35:27;100268.16;;;15.93;78.59
13476;BME280;6810;63.824;20.288;2023-07-22T01:38:14;100268.28;;;15.91;78.06
13476;BME280;6810;63.824;20.288;2023-07-22T01:41:02;100270.97;;;15.91;78.85
13476;BME280;6810;63.824;20.288;2023-07-22T01:43:49;100260.50;;;15.88;77.99
13476;BME280;6810;63.824;20.288;2023-07-22T01:46:36;100272.09;;;15.89;78.56
13476;BME280;6810;63.824;20.288;2023-07-22T01:49:23;100269.53;;;15.87;78.86
13476;BME280;6810;63.824;20.288;2023-07-22T01:52:13;100266.00;;;15.87;78.69
13476;BME280;6810;63.824;20.288;2023-07-22T01:55:01;100264.31;;;15.86;78.55
13476;BME280;6810;63.824;20.288;2023-07-22T01:57:48;100266.13;;;15.85;78.39
13476;BME280;6810;63.824;20.288;2023-07-22T02:00:35;100261.75;;;15.84;78.74
13476;BME280;6810;63.824;20.288;2023-07-22T02:03:22;100261.75;;;15.84;78.72
13476;BME280;6810;63.824;20.288;2023-07-22T02:06:09;100266.13;;;15.85;78.58
13476;BME280;6810;63.824;20.288;2023-07-22T02:08:56;100261.75;;;15.84;78.79
13476;BME280;6810;63.824;20.288;2023-07-22T02:11:44;100269.81;;;15.84;78.66
13476;BME280;6810;63.824;20.288;2023-07-22T02:14:31;100260.91;;;15.84;78.83
13476;BME280;6810;63.824;20.288;2023-07-22T02:17:18;100269.81;;;15.84;78.97
13476;BME280;6810;63.824;20.288;2023-07-22T02:20:07;100257.25;;;15.85;79.06
13476;BME280;6810;63.824;20.288;2023-07-22T02:22:55;100256.50;;;15.83;79.14
13476;BME280;6810;63.824;20.288;2023-07-22T02:25:42;100255.78;;;15.81;79.39
13476;BME280;6810;63.824;20.288;2023-07-22T02:28:29;100255.09;;;15.79;79.32
13476;BME280;6810;63.824;20.288;2023-07-22T02:31:16;100250.53;;;15.79;79.54
13476;BME280;6810;63.824;20.288;2023-07-22T02:34:03;100248.97;;;15.77;79.21
13476;BME280;6810;63.824;20.288;2023-07-22T02:36:50;100266.66;;;15.79;79.57
13476;BME280;6810;63.824;20.288;2023-07-22T02:39:38;100256.91;;;15.78;79.69
13476;BME280;6810;63.824;20.288;2023-07-22T02:42:25;100254.94;;;15.80;79.25
13476;BME280;6810;63.824;20.288;2023-07-22T02:45:12;100253.09;;;15.81;79.69
13476;BME280;6810;63.824;20.288;2023-07-22T02:47:59;100244.19;;;15.80;79.60
13476;BME280;6810;63.824;20.288;2023-07-22T02:50:46;100248.72;;;15.80;79.59
13476;BME280;6810;63.824;20.288;2023-07-22T02:53:33;100250.28;;;15.82;80.04
13476;BME280;6810;63.824;20.288;2023-07-22T02:56:20;100239.66;;;15.81;79.43
13476;BME280;6810;63.824;20.288;2023-07-22T02:59:09;100252.81;;;15.84;79.94
13476;BME280;6810;63.824;20.288;2023-07-22T03:01:56;100253.69;;;15.84;80.07
13476;BME280;6810;63.824;20.288;2023-07-22T03:04:43;100255.38;;;15.85;79.30
13476;BME280;6810;63.824;20.288;2023-07-22T03:07:30;100251.88;;;15.85;79.47
13476;BME280;6810;63.824;20.288;2023-07-22T03:10:17;100250.00;;;15.85;79.77
13476;BME280;6810;63.824;20.288;2023-07-22T03:13:04;100247.19;;;15.87;79.56
13476;BME280;6810;63.824;20.288;2023-07-22T03:15:52;100247.19;;;15.87;79.95
13476;BME280;6810;63.824;20.288;2023-07-22T03:18:39;100247.03;;;15.88;80.16
13476;BME280;6810;63.824;20.288;2023-07-22T03:21:26;100251.47;;;15.89;79.55
13476;BME280;6810;63.824;20.288;2023-07-22T03:24:13;100249.47;;;15.91;80.36
13476;BME280;6810;63.824;20.288;2023-07-22T03:27:00;100243.13;;;15.92;79.73
13476;BME280;6810;63.824;20.288;2023-07-22T03:29:47;100243.00;;;15.94;80.19
13476;BME280;6810;63.824;20.288;2023-07-22T03:32:34;100237.47;;;15.95;80.00
13476;BME280;6810;63.824;20.288;2023-07-22T03:35:21;100245.41;;;15.97;79.51
13476;BME280;6810;63.824;20.288;2023-07-22T03:38:08;100242.72;;;15.97;80.21
13476;BME280;6810;63.824;20.288;2023-07-22T03:40:56;100243.41;;;15.99;79.87
13476;BME280;6810;63.824;20.288;2023-07-22T03:43:43;100243.28;;;16.00;79.50
13476;BME280;6810;63.824;20.288;2023-07-22T03:46:30;100246.81;;;16.01;79.54
13476;BME280;6810;63.824;20.288;2023-07-22T03:49:17;100244.88;;;16.03;79.94
13476;BME280;6810;63.824;20.288;2023-07-22T03:52:05;100237.75;;;16.02;79.61
13476;BME280;6810;63.824;20.288;2023-07-22T03:54:53;100247.69;;;16.01;79.66
13476;BME280;6810;63.824;20.288;2023-07-22T03:57:40;100245.69;;;16.03;79.26
13476;BME280;6810;63.824;20.288;2023-07-22T04:00:27;100245.69;;;16.03;80.09
13476;BME280;6810;63.824;20.288;2023-07-22T04:03:14;100243.00;;;16.03;80.05
13476;BME280;6810;63.824;20.288;2023-07-22T04:06:01;100242.03;;;16.04;79.38
13476;BME280;6810;63.824;20.288;2023-07-22T04:08:49;100247.28;;;16.06;80.15
13476;BME280;6810;63.824;20.288;2023-07-22T04:11:36;100238.22;;;16.07;79.93
13476;BME280;6810;63.824;20.288;2023-07-22T04:14:23;100245.31;;;16.08;80.18
13476;BME280;6810;63.824;20.288;2023-07-22T04:17:10;100240.63;;;16.10;80.34
13476;BME280;6810;63.824;20.288;2023-07-22T04:19:58;100248.56;;;16.11;80.02
13476;BME280;6810;63.824;20.288;2023-07-22T04:22:45;100246.59;;;16.13;80.05
13476;BME280;6810;63.824;20.288;2023-07-22T04:25:32;100247.31;;;16.15;80.50
13476;BME280;6810;63.824;20.288;2023-07-22T04:28:19;100248.88;;;16.18;80.45
13476;BME280;6810;63.824;20.288;2023-07-22T04:31:06;100246.06;;;16.19;80.59
13476;BME280;6810;63.824;20.288;2023-07-22T04:33:54;100245.06;;;16.20;80.05
13476;BME280;6810;63.824;20.288;2023-07-22T04:36:42;100247.59;;;16.22;80.32
13476;BME280;6810;63.824;20.288;2023-07-22T04:39:29;100248.34;;;16.24;80.07
13476;BME280;6810;63.824;20.288;2023-07-22T04:42:16;100256.25;;;16.25;80.61
13476;BME280;6810;63.824;20.288;2023-07-22T04:45:03;100257.00;;;16.27;80.29
13476;BME280;6810;63.824;20.288;2023-07-22T04:47:50;100252.31;;;16.29;79.99
13476;BME280;6810;63.824;20.288;2023-07-22T04:50:38;100261.81;;;16.33;80.50
13476;BME280;6810;63.824;20.288;2023-07-22T04:53:25;100250.88;;;16.25;80.37
13476;BME280;6810;63.824;20.288;2023-07-22T04:56:12;100261.28;;;16.39;80.09
13476;BME280;6810;63.824;20.288;2023-07-22T04:58:59;100265.50;;;16.42;80.37
13476;BME280;6810;63.824;20.288;2023-07-22T05:01:46;100232.91;;;16.26;80.72
13476;BME280;6810;63.824;20.288;2023-07-22T05:04:33;100263.31;;;16.47;80.68
13476;BME280;6810;63.824;20.288;2023-07-22T05:07:20;100262.16;;;16.49;80.82
13476;BME280;6810;63.824;20.288;2023-07-22T05:10:08;100262.88;;;16.51;80.63
13476;BME280;6810;63.824;20.288;2023-07-22T05:12:55;100263.75;;;16.52;80.55
13476;BME280;6810;63.824;20.288;2023-07-22T05:15:42;100241.78;;;16.47;80.35
13476;BME280;6810;63.824;20.288;2023-07-22T05:18:29;100266.84;;;16.57;80.18
13476;BME280;6810;63.824;20.288;2023-07-22T05:21:16;100251.44;;;16.59;80.21
13476;BME280;6810;63.824;20.288;2023-07-22T05:24:04;100251.16;;;16.62;81.04
13476;BME280;6810;63.824;20.288;2023-07-22T05:26:51;100254.44;;;16.65;81.07
13476;BME280;6810;63.824;20.288;2023-07-22T05:29:38;100250.00;;;16.64;80.98
13476;BME280;6810;63.824;20.288;2023-07-22T05:32:25;100258.25;;;16.72;80.82
13476;BME280;6810;63.824;20.288;2023-07-22T05:35:12;100250.03;;;16.74;81.50
13476;BME280;6810;63.824;20.288;2023-07-22T05:37:59;100253.44;;;16.76;80.93
13476;BME280;6810;63.824;20.288;2023-07-22T05:40:46;100252.31;;;16.78;81.35
13476;BME280;6810;63.824;20.288;2023-07-22T05:43:33;100256.44;;;16.82;80.74
13476;BME280;6810;63.824;20.288;2023-07-22T05:46:20;100248.22;;;16.84;81.56
13476;BME280;6810;63.824;20.288;2023-07-22T05:49:08;100256.56;;;16.90;81.50
13476;BME280;6810;63.824;20.288;2023-07-22T05:51:55;100256.28;;;16.93;81.15
13476;BME280;6810;63.824;20.288;2023-07-22T05:54:43;100257.72;;;16.97;81.07
13476;BME280;6810;63.824;20.288;2023-07-22T05:57:30;100257.28;;;17.02;80.91
13476;BME280;6810;63.824;20.288;2023-07-22T06:00:17;100252.63;;;17.04;80.07
13476;BME280;6810;63.824;20.288;2023-07-22T06:03:04;100257.59;;;17.08;80.82
13476;BME280;6810;63.824;20.288;2023-07-22T06:05:52;100250.19;;;17.10;80.85
13476;BME280;6810;63.824;20.288;2023-07-22T06:08:39;100257.72;;;17.16;80.70
13476;BME280;6810;63.824;20.288;2023-07-22T06:11:26;100251.22;;;17.19;80.96
13476;BME280;6810;63.824;20.288;2023-07-22T06:14:15;100251.47;;;17.25;80.05
13476;BME280;6810;63.824;20.288;2023-07-22T06:17:02;100255.44;;;17.31;80.29
13476;BME280;6810;63.824;20.288;2023-07-22T06:19:49;100245.94;;;17.37;80.72
13476;BME280;6810;63.824;20.288;2023-07-22T06:22:37;100241.41;;;17.37;80.03
13476;BME280;6810;63.824;20.288;2023-07-22T06:25:24;100250.34;;;17.47;79.85
13476;BME280;6810;63.824;20.288;2023-07-22T06:28:11;100242.69;;;17.52;79.83
13476;BME280;6810;63.824;20.288;2023-07-22T06:30:58;100253.88;;;17.57;79.41
13476;BME280;6810;63.824;20.288;2023-07-22T06:33:45;100247.19;;;17.61;79.20
13476;BME280;6810;63.824;20.288;2023-07-22T06:36:32;100255.56;;;17.68;79.23
13476;BME280;6810;63.824;20.288;2023-07-22T06:39:19;100255.84;;;17.74;78.23
13476;BME280;6810;63.824;20.288;2023-07-22T06:42:30;100256.06;;;17.81;78.12
13476;BME280;6810;63.824;20.288;2023-07-22T06:45:17;100253.09;;;17.84;77.26
13476;BME280;6810;63.824;20.288;2023-07-22T06:48:04;100255.34;;;17.88;77.28
13476;BME280;6810;63.824;20.288;2023-07-22T06:50:51;100248.53;;;17.94;77.17
13476;BME280;6810;63.824;20.288;2023-07-22T06:53:38;100257.84;;;17.99;76.54
13476;BME280;6810;63.824;20.288;2023-07-22T06:56:26;100257.41;;;18.04;75.64
13476;BME280;6810;63.824;20.288;2023-07-22T06:59:13;100259.00;;;18.06;75.98
13476;BME280;6810;63.824;20.288;2023-07-22T07:02:00;100255.84;;;18.11;75.19
13476;BME280;6810;63.824;20.288;2023-07-22T07:04:47;100256.22;;;18.16;75.19
13476;BME280;6810;63.824;20.288;2023-07-22T07:07:34;100249.56;;;18.20;74.59
13476;BME280;6810;63.824;20.288;2023-07-22T07:10:21;100247.38;;;18.23;74.39
13476;BME280;6810;63.824;20.288;2023-07-22T07:13:08;100245.97;;;18.29;73.75
13476;BME280;6810;63.824;20.288;2023-07-22T07:15:55;100247.34;;;18.33;73.39
13476;BME280;6810;63.824;20.288;2023-07-22T07:18:42;100244.34;;;18.36;73.83
13476;BME280;6810;63.824;20.288;2023-07-22T07:21:30;100250.50;;;18.38;73.02
13476;BME280;6810;63.824;20.288;2023-07-22T07:24:18;100259.16;;;18.41;73.60
13476;BME280;6810;63.824;20.288;2023-07-22T07:27:05;100252.59;;;18.44;72.66
13476;BME280;6810;63.824;20.288;2023-07-22T07:29:53;100251.72;;;18.43;73.07
13476;BME280;6810;63.824;20.288;2023-07-22T07:32:40;100255.13;;;18.45;72.50
13476;BME280;6810;63.824;20.288;2023-07-22T07:35:27;100253.13;;;18.47;72.64
13476;BME280;6810;63.824;20.288;2023-07-22T07:38:14;100251.81;;;18.51;73.18
13476;BME280;6810;63.824;20.288;2023-07-22T07:41:05;100245.25;;;18.54;72.94
13476;BME280;6810;63.824;20.288;2023-07-22T07:43:52;100246.84;;;18.56;72.49
13476;BME280;6810;63.824;20.288;2023-07-22T07:46:40;100191.28;;;18.27;72.73
13476;BME280;6810;63.824;20.288;2023-07-22T07:49:26;100246.13;;;18.54;72.47
13476;BME280;6810;63.824;20.288;2023-07-22T07:52:14;100255.22;;;18.53;72.16
13476;BME280;6810;63.824;20.288;2023-07-22T07:55:01;100255.91;;;18.55;72.74
13476;BME280;6810;63.824;20.288;2023-07-22T07:57:48;100251.06;;;18.59;72.38
13476;BME280;6810;63.824;20.288;2023-07-22T08:00:35;100260.03;;;18.59;72.36
13476;BME280;6810;63.824;20.288;2023-07-22T08:03:23;100257.03;;;18.62;72.03
13476;BME280;6810;63.824;20.288;2023-07-22T08:06:10;100262.28;;;18.64;72.76
13476;BME280;6810;63.824;20.288;2023-07-22T08:08:58;100270.38;;;18.64;72.47
13476;BME280;6810;63.824;20.288;2023-07-22T08:11:45;100272.06;;;18.65;72.33
13476;BME280;6810;63.824;20.288;2023-07-22T08:14:33;100271.09;;;18.66;72.55
13476;BME280;6810;63.824;20.288;2023-07-22T08:17:19;100267.22;;;18.68;72.73
13476;BME280;6810;63.824;20.288;2023-07-22T08:20:07;100238.19;;;18.53;72.42
13476;BME280;6810;63.824;20.288;2023-07-22T08:22:54;100271.16;;;18.74;72.55
13476;BME280;6810;63.824;20.288;2023-07-22T08:25:41;100275.41;;;18.76;72.19
13476;BME280;6810;63.824;20.288;2023-07-22T08:28:29;100276.78;;;18.80;71.67
13476;BME280;6810;63.824;20.288;2023-07-22T08:31:16;100278.19;;;18.84;71.75
13476;BME280;6810;63.824;20.288;2023-07-22T08:34:04;100269.56;;;18.81;71.65
13476;BME280;6810;63.824;20.288;2023-07-22T08:36:51;100281.13;;;18.91;70.89
13476;BME280;6810;63.824;20.288;2023-07-22T08:39:38;100287.94;;;18.95;70.96
13476;BME280;6810;63.824;20.288;2023-07-22T08:42:25;100288.78;;;18.95;70.79
13476;BME280;6810;63.824;20.288;2023-07-22T08:45:14;100283.06;;;18.98;70.41
13476;BME280;6810;63.824;20.288;2023-07-22T08:48:03;100290.84;;;19.02;69.56
13476;BME280;6810;63.824;20.288;2023-07-22T08:51:03;100293.41;;;19.03;69.25
13476;BME280;6810;63.824;20.288;2023-07-22T08:53:50;100283.06;;;18.98;69.00
13476;BME280;6810;63.824;20.288;2023-07-22T08:56:38;100285.38;;;19.11;69.19
13476;BME280;6810;63.824;20.288;2023-07-22T08:59:25;100289.47;;;19.15;68.85
13476;BME280;6810;63.824;20.288;2023-07-22T09:02:13;100288.34;;;19.18;68.51
13476;BME280;6810;63.824;20.288;2023-07-22T09:05:00;100298.97;;;19.19;69.49
13476;BME280;6810;63.824;20.288;2023-07-22T09:07:47;100282.94;;;19.18;68.99
13476;BME280;6810;63.824;20.288;2023-07-22T09:10:37;100291.19;;;19.16;68.86
13476;BME280;6810;63.824;20.288;2023-07-22T09:13:26;100293.19;;;19.14;69.60
13476;BME280;6810;63.824;20.288;2023-07-22T09:16:14;100285.22;;;19.13;69.53
13476;BME280;6810;63.824;20.288;2023-07-22T09:19:03;100295.50;;;19.09;69.65
13476;BME280;6810;63.824;20.288;2023-07-22T09:21:51;100307.00;;;19.11;69.47
13476;BME280;6810;63.824;20.288;2023-07-22T09:24:38;100296.03;;;19.13;69.84
13476;BME280;6810;63.824;20.288;2023-07-22T09:27:33;100297.56;;;19.15;69.40
13476;BME280;6810;63.824;20.288;2023-07-22T09:30:25;100305.38;;;19.18;69.33
13476;BME280;6810;63.824;20.288;2023-07-22T09:33:21;100313.31;;;19.20;68.88
13476;BME280;6810;63.824;20.288;2023-07-22T09:36:10;100299.81;;;19.20;68.59
13476;BME280;6810;63.824;20.288;2023-07-22T09:39:01;100276.81;;;18.98;69.04
13476;BME280;6810;63.824;20.288;2023-07-22T09:41:52;100317.03;;;19.19;68.88
13476;BME280;6810;63.824;20.288;2023-07-22T09:44:43;100310.47;;;19.21;68.99
13476;BME280;6810;63.824;20.288;2023-07-22T09:47:39;100311.16;;;19.23;69.28
13476;BME280;6810;63.824;20.288;2023-07-22T09:50:27;100315.16;;;19.29;69.00
13476;BME280;6810;63.824;20.288;2023-07-22T09:53:17;100312.31;;;19.30;68.54
13476;BME280;6810;63.824;20.288;2023-07-22T09:56:04;100285.63;;;19.18;68.91
13476;BME280;6810;63.824;20.288;2023-07-22T09:58:53;100312.34;;;19.38;68.60
13476;BME280;6810;63.824;20.288;2023-07-22T10:01:40;100307.66;;;19.40;68.07
13476;BME280;6810;63.824;20.288;2023-07-22T10:04:29;100311.53;;;19.38;67.93
13476;BME280;6810;63.824;20.288;2023-07-22T10:07:19;100321.88;;;19.42;67.78
13476;BME280;6810;63.824;20.288;2023-07-22T10:10:07;100320.72;;;19.45;67.17
13476;BME280;6810;63.824;20.288;2023-07-22T10:12:54;100321.25;;;19.48;66.63
13476;BME280;6810;63.824;20.288;2023-07-22T10:15:41;100304.78;;;19.42;66.08
13476;BME280;6810;63.824;20.288;2023-07-22T10:18:30;100321.47;;;19.55;66.12
13476;BME280;6810;63.824;20.288;2023-07-22T10:21:18;100323.19;;;19.56;66.45
13476;BME280;6810;63.824;20.288;2023-07-22T10:24:06;100323.19;;;19.56;67.90
13476;BME280;6810;63.824;20.288;2023-07-22T10:26:54;100320.72;;;19.45;68.80
13476;BME280;6810;63.824;20.288;2023-07-22T10:29:45;100330.59;;;19.36;69.64
13476;BME280;6810;63.824;20.288;2023-07-22T10:32:35;100317.19;;;19.17;70.40
13476;BME280;6810;63.824;20.288;2023-07-22T10:35:39;100322.06;;;19.14;71.09
13476;BME280;6810;63.824;20.288;2023-07-22T10:38:28;100321.53;;;19.10;71.33
13476;BME280;6810;63.824;20.288;2023-07-22T10:41:16;100328.22;;;19.06;71.51
13476;BME280;6810;63.824;20.288;2023-07-22T10:44:06;100330.56;;;19.01;71.98
13476;BME280;6810;63.824;20.288;2023-07-22T10:46:59;100340.81;;;18.98;72.26
13476;BME280;6810;63.824;20.288;2023-07-22T10:49:49;100320.50;;;18.93;72.76
13476;BME280;6810;63.824;20.288;2023-07-22T10:52:41;100333.25;;;19.01;72.88
13476;BME280;6810;63.824;20.288;2023-07-22T10:55:29;100324.53;;;19.07;72.47
13476;BME280;6810;63.824;20.288;2023-07-22T10:58:19;100334.88;;;19.12;72.87
13476;BME280;6810;63.824;20.288;2023-07-22T11:04:24;100328.00;;;19.17;72.27
13476;BME280;6810;63.824;20.288;2023-07-22T11:07:42;100307.63;;;19.05;71.92
13476;BME280;6810;63.824;20.288;2023-07-22T11:10:29;100328.88;;;19.18;71.62
13476;BME280;6810;63.824;20.288;2023-07-22T11:13:16;100330.56;;;19.19;71.59
13476;BME280;6810;63.824;20.288;2023-07-22T11:16:03;100333.88;;;19.13;71.97
13476;BME280;6810;63.824;20.288;2023-07-22T11:18:51;100349.63;;;19.17;72.32
13476;BME280;6810;63.824;20.288;2023-07-22T11:21:38;100356.19;;;19.15;72.02
13476;BME280;6810;63.824;20.288;2023-07-22T11:24:25;100361.34;;;19.08;72.53
13476;BME280;6810;63.824;20.288;2023-07-22T11:27:12;100360.28;;;19.01;73.27
13476;BME280;6810;63.824;20.288;2023-07-22T11:30:02;100363.03;;;18.91;74.22
13476;BME280;6810;63.824;20.288;2023-07-22T11:32:49;100365.31;;;18.86;74.44
13476;BME280;6810;63.824;20.288;2023-07-22T11:35:36;100354.25;;;18.80;74.61
13476;BME280;6810;63.824;20.288;2023-07-22T11:38:24;100359.97;;;18.77;74.89
13476;BME280;6810;63.824;20.288;2023-07-22T11:41:11;100362.28;;;18.72;74.56
13476;BME280;6810;63.824;20.288;2023-07-22T11:44:03;100370.69;;;18.69;74.81
13476;BME280;6810;63.824;20.288;2023-07-22T11:46:58;100371.13;;;18.64;74.47
13476;BME280;6810;63.824;20.288;2023-07-22T11:49:47;100350.00;;;18.50;74.79
13476;BME280;6810;63.824;20.288;2023-07-22T11:52:34;100375.56;;;18.56;75.07
13476;BME280;6810;63.824;20.288;2023-07-22T11:55:24;100365.34;;;18.50;75.96
13476;BME280;6810;63.824;20.288;2023-07-22T11:58:11;100376.28;;;18.48;75.99
13476;BME280;6810;63.824;20.288;2023-07-22T12:01:10;100370.22;;;18.37;75.96
13476;BME280;6810;63.824;20.288;2023-07-22T12:03:57;100383.00;;;18.35;76.05
13476;BME280;6810;63.824;20.288;2023-07-22T12:06:45;100361.59;;;18.14;76.33
13476;BME280;6810;63.824;20.288;2023-07-22T12:09:32;100386.88;;;18.23;76.61
13476;BME280;6810;63.824;20.288;2023-07-22T12:12:19;100387.16;;;18.20;76.50
13476;BME280;6810;63.824;20.288;2023-07-22T12:15:18;100381.19;;;18.16;76.94
13476;BME280;6810;63.824;20.288;2023-07-22T12:18:05;100369.28;;;18.09;77.28
13476;BME280;6810;63.824;20.288;2023-07-22T12:20:52;100359.41;;;17.91;77.43
13476;BME280;6810;63.824;20.288;2023-07-22T12:23:41;100384.19;;;18.04;77.52
13476;BME280;6810;63.824;20.288;2023-07-22T12:26:29;100388.91;;;18.02;78.01
13476;BME280;6810;63.824;20.288;2023-07-22T12:29:16;100392.56;;;18.01;77.37
13476;BME280;6810;63.824;20.288;2023-07-22T12:32:03;100399.97;;;17.99;78.22
13476;BME280;6810;63.824;20.288;2023-07-22T12:34:50;100390.88;;;18.00;77.38
13476;BME280;6810;63.824;20.288;2023-07-22T12:37:37;100391.31;;;17.95;78.09
13476;BME280;6810;63.824;20.288;2023-07-22T12:40:24;100369.47;;;17.79;77.85
13476;BME280;6810;63.824;20.288;2023-07-22T12:43:11;100395.13;;;17.93;77.80
13476;BME280;6810;63.824;20.288;2023-07-22T12:45:58;100389.06;;;17.91;76.91
13476;BME280;6810;63.824;20.288;2023-07-22T12:48:45;100388.47;;;17.87;76.68
13476;BME280;6810;63.824;20.288;2023-07-22T12:51:33;100388.63;;;17.86;76.91
13476;BME280;6810;63.824;20.288;2023-07-22T12:54:20;100393.00;;;17.87;76.25
13476;BME280;6810;63.824;20.288;2023-07-22T12:57:07;100395.84;;;17.85;76.65
13476;BME280;6810;63.824;20.288;2023-07-22T12:59:54;100387.63;;;17.87;76.47
13476;BME280;6810;63.824;20.288;2023-07-22T13:02:41;100394.88;;;17.86;76.54
13476;BME280;6810;63.824;20.288;2023-07-22T13:05:29;100396.72;;;17.86;75.41
13476;BME280;6810;63.824;20.288;2023-07-22T13:08:16;100396.84;;;17.84;74.93
13476;BME280;6810;63.824;20.288;2023-07-22T13:11:03;100398.00;;;17.82;75.41
13476;BME280;6810;63.824;20.288;2023-07-22T13:13:50;100394.59;;;17.80;74.66
13476;BME280;6810;63.824;20.288;2023-07-22T13:16:37;100396.56;;;17.78;74.92
13476;BME280;6810;63.824;20.288;2023-07-22T13:19:24;100399.84;;;17.72;74.57
13476;BME280;6810;63.824;20.288;2023-07-22T13:22:12;100405.22;;;17.72;74.49
13476;BME280;6810;63.824;20.288;2023-07-22T13:24:59;100395.88;;;17.66;74.16
13476;BME280;6810;63.824;20.288;2023-07-22T13:27:46;100402.13;;;17.67;74.61
13476;BME280;6810;63.824;20.288;2023-07-22T13:30:33;100407.91;;;17.62;74.72
13476;BME280;6810;63.824;20.288;2023-07-22T13:33:20;100401.13;;;17.68;74.79
13476;BME280;6810;63.824;20.288;2023-07-22T13:36:07;100392.03;;;17.69;75.63
13476;BME280;6810;63.824;20.288;2023-07-22T13:38:54;100404.25;;;17.73;74.87
13476;BME280;6810;63.824;20.288;2023-07-22T13:41:41;100399.00;;;17.71;75.08
13476;BME280;6810;63.824;20.288;2023-07-22T13:44:28;100414.31;;;17.71;75.31
13476;BME280;6810;63.824;20.288;2023-07-22T13:47:15;100411.06;;;17.67;74.16
13476;BME280;6810;63.824;20.288;2023-07-22T13:50:03;100406.09;;;17.63;74.17
13476;BME280;6810;63.824;20.288;2023-07-22T13:52:50;100416.28;;;17.59;74.80
13476;BME280;6810;63.824;20.288;2023-07-22T13:55:37;100414.03;;;17.55;74.48
13476;BME280;6810;63.824;20.288;2023-07-22T13:58:24;100415.16;;;17.52;74.46
13476;BME280;6810;63.824;20.288;2023-07-22T14:01:11;100418.72;;;17.53;74.31
13476;BME280;6810;63.824;20.288;2023-07-22T14:03:58;100418.16;;;17.49;74.19
13476;BME280;6810;63.824;20.288;2023-07-22T14:06:45;100416.72;;;17.45;74.34
13476;BME280;6810;63.824;20.288;2023-07-22T14:09:32;100419.56;;;17.44;74.28
13476;BME280;6810;63.824;20.288;2023-07-22T14:12:19;100423.34;;;17.41;74.90
13476;BME280;6810;63.824;20.288;2023-07-22T14:15:07;100428.88;;;17.40;74.44
13476;BME280;6810;63.824;20.288;2023-07-22T14:17:54;100425.50;;;17.38;74.17
13476;BME280;6810;63.824;20.288;2023-07-22T14:20:41;100422.78;;;17.38;74.58
13476;BME280;6810;63.824;20.288;2023-07-22T14:23:28;100429.44;;;17.33;74.11
13476;BME280;6810;63.824;20.288;2023-07-22T14:26:15;100428.84;;;17.30;74.48
13476;BME280;6810;63.824;20.288;2023-07-22T14:29:02;100439.63;;;17.30;74.82
13476;BME280;6810;63.824;20.288;2023-07-22T14:31:49;100429.56;;;17.32;75.12
13476;BME280;6810;63.824;20.288;2023-07-22T14:34:36;100442.91;;;17.33;74.50
13476;BME280;6810;63.824;20.288;2023-07-22T14:37:23;100437.22;;;17.37;74.91
13476;BME280;6810;63.824;20.288;2023-07-22T14:40:11;100412.97;;;17.27;74.59